sensor_id;sensor_type;location;lat;lon;timestamp;P1;durP1;ratioP1;P2;durP2;ratioP2
72676;SDS011;60755;51.374;10.662;2022-08-01T00:01:24;3.05;;;2.85;;
72676;SDS011;60755;51.374;10.662;2022-08-01T00:03:50;2.95;;;2.78;;
72676;SDS011;60755;51.374;10.662;2022-08-01T00:06:17;3.00;;;2.90;;
72676;SDS011;60755;51.374;10.662;2022-08-01T00:08:44;2.95;;;2.70;;
72676;SDS011;60755;51.374;10.662;2022-08-01T00:11:10;3.10;;;3.00;;
72676;SDS011;60755;51.374;10.662;2022-08-01T00:13:37;3.25;;;2.97;;
72676;SDS011;60755;51.374;10.662;2022-08-01T00:16:05;3.50;;;3.30;;
72676;SDS011;60755;51.374;10.662;2022-08-01T00:18:31;3.75;;;3.45;;
72676;SDS011;60755;51.374;10.662;2022-08-01T00:20:57;3.67;;;3.47;;
72676;SDS011;60755;51.374;10.662;2022-08-01T00:23:24;3.72;;;3.60;;
72676;SDS011;60755;51.374;10.662;2022-08-01T00:25:50;3.58;;;3.38;;
72676;SDS011;60755;51.374;10.662;2022-08-01T00:28:17;3.80;;;3.50;;
72676;SDS011;60755;51.374;10.662;2022-08-01T00:30:43;3.47;;;3.35;;
72676;SDS011;60755;51.374;10.662;2022-08-01T00:33:11;4.03;;;3.72;;
72676;SDS011;60755;51.374;10.662;2022-08-01T00:35:37;3.58;;;3.47;;
72676;SDS011;60755;51.374;10.662;2022-08-01T00:38:04;5.18;;;3.67;;
72676;SDS011;60755;51.374;10.662;2022-08-01T00:40:30;3.47;;;3.28;;
72676;SDS011;60755;51.374;10.662;2022-08-01T00:42:56;3.33;;;3.13;;
72676;SDS011;60755;51.374;10.662;2022-08-01T00:45:23;3.40;;;3.20;;
72676;SDS011;60755;51.374;10.662;2022-08-01T00:47:49;3.80;;;3.50;;
72676;SDS011;60755;51.374;10.662;2022-08-01T00:50:17;4.20;;;3.80;;
72676;SDS011;60755;51.374;10.662;2022-08-01T00:52:44;3.40;;;3.30;;
72676;SDS011;60755;51.374;10.662;2022-08-01T00:55:11;3.88;;;3.58;;
72676;SDS011;60755;51.374;10.662;2022-08-01T00:57:38;3.95;;;3.75;;
72676;SDS011;60755;51.374;10.662;2022-08-01T01:00:07;4.15;;;3.88;;
72676;SDS011;60755;51.374;10.662;2022-08-01T01:02:34;3.90;;;3.70;;
72676;SDS011;60755;51.374;10.662;2022-08-01T01:05:01;4.00;;;3.70;;
72676;SDS011;60755;51.374;10.662;2022-08-01T01:07:31;3.95;;;3.70;;
72676;SDS011;60755;51.374;10.662;2022-08-01T01:10:05;4.13;;;3.70;;
72676;SDS011;60755;51.374;10.662;2022-08-01T01:12:39;3.70;;;3.53;;
72676;SDS011;60755;51.374;10.662;2022-08-01T01:15:13;4.20;;;3.90;;
72676;SDS011;60755;51.374;10.662;2022-08-01T01:17:45;4.32;;;4.03;;
72676;SDS011;60755;51.374;10.662;2022-08-01T01:20:14;4.43;;;4.15;;
72676;SDS011;60755;51.374;10.662;2022-08-01T01:22:47;3.83;;;3.63;;
72676;SDS011;60755;51.374;10.662;2022-08-01T01:25:26;3.47;;;3.28;;
72676;SDS011;60755;51.374;10.662;2022-08-01T01:28:07;4.40;;;4.10;;
72676;SDS011;60755;51.374;10.662;2022-08-01T01:30:40;5.65;;;3.90;;
72676;SDS011;60755;51.374;10.662;2022-08-01T01:33:09;4.32;;;4.03;;
72676;SDS011;60755;51.374;10.662;2022-08-01T01:35:38;4.47;;;4.18;;
72676;SDS011;60755;51.374;10.662;2022-08-01T01:38:09;4.82;;;4.53;;
72676;SDS011;60755;51.374;10.662;2022-08-01T01:40:40;4.38;;;4.15;;
72676;SDS011;60755;51.374;10.662;2022-08-01T01:43:09;4.82;;;4.53;;
72676;SDS011;60755;51.374;10.662;2022-08-01T01:45:37;4.90;;;4.50;;
72676;SDS011;60755;51.374;10.662;2022-08-01T01:48:06;4.90;;;4.53;;
72676;SDS011;60755;51.374;10.662;2022-08-01T01:50:35;4.45;;;4.07;;
72676;SDS011;60755;51.374;10.662;2022-08-01T01:53:02;6.65;;;4.20;;
72676;SDS011;60755;51.374;10.662;2022-08-01T01:55:30;4.50;;;4.10;;
72676;SDS011;60755;51.374;10.662;2022-08-01T01:57:58;3.70;;;3.50;;
72676;SDS011;60755;51.374;10.662;2022-08-01T02:00:26;4.60;;;4.30;;
72676;SDS011;60755;51.374;10.662;2022-08-01T02:02:55;4.40;;;4.20;;
72676;SDS011;60755;51.374;10.662;2022-08-01T02:05:24;4.63;;;4.32;;
72676;SDS011;60755;51.374;10.662;2022-08-01T02:07:53;4.38;;;4.07;;
72676;SDS011;60755;51.374;10.662;2022-08-01T02:10:21;4.00;;;3.78;;
72676;SDS011;60755;51.374;10.662;2022-08-01T02:12:48;3.95;;;3.75;;
72676;SDS011;60755;51.374;10.662;2022-08-01T02:15:16;4.05;;;3.85;;
72676;SDS011;60755;51.374;10.662;2022-08-01T02:17:46;4.00;;;3.67;;
72676;SDS011;60755;51.374;10.662;2022-08-01T02:20:14;4.65;;;3.47;;
72676;SDS011;60755;51.374;10.662;2022-08-01T02:22:44;3.85;;;3.65;;
72676;SDS011;60755;51.374;10.662;2022-08-01T02:25:15;3.35;;;3.15;;
72676;SDS011;60755;51.374;10.662;2022-08-01T02:27:48;3.42;;;3.30;;
72676;SDS011;60755;51.374;10.662;2022-08-01T02:30:19;3.80;;;3.60;;
72676;SDS011;60755;51.374;10.662;2022-08-01T02:32:47;3.92;;;3.72;;
72676;SDS011;60755;51.374;10.662;2022-08-01T02:35:18;3.92;;;3.63;;
72676;SDS011;60755;51.374;10.662;2022-08-01T02:37:49;3.20;;;3.00;;
72676;SDS011;60755;51.374;10.662;2022-08-01T02:40:18;3.00;;;2.80;;
72676;SDS011;60755;51.374;10.662;2022-08-01T02:42:47;2.08;;;2.03;;
72676;SDS011;60755;51.374;10.662;2022-08-01T02:45:16;3.05;;;2.22;;
72676;SDS011;60755;51.374;10.662;2022-08-01T02:47:44;2.40;;;2.20;;
72676;SDS011;60755;51.374;10.662;2022-08-01T02:50:14;2.50;;;2.45;;
72676;SDS011;60755;51.374;10.662;2022-08-01T02:52:41;4.15;;;3.85;;
72676;SDS011;60755;51.374;10.662;2022-08-01T02:55:11;4.00;;;3.80;;
72676;SDS011;60755;51.374;10.662;2022-08-01T02:57:38;4.30;;;4.00;;
72676;SDS011;60755;51.374;10.662;2022-08-01T03:00:09;5.47;;;4.13;;
72676;SDS011;60755;51.374;10.662;2022-08-01T03:02:36;5.18;;;4.60;;
72676;SDS011;60755;51.374;10.662;2022-08-01T03:05:04;7.55;;;4.57;;
72676;SDS011;60755;51.374;10.662;2022-08-01T03:07:33;5.38;;;4.90;;
72676;SDS011;60755;51.374;10.662;2022-08-01T03:10:01;5.85;;;5.32;;
72676;SDS011;60755;51.374;10.662;2022-08-01T03:12:30;7.70;;;5.70;;
72676;SDS011;60755;51.374;10.662;2022-08-01T03:15:00;5.95;;;5.22;;
72676;SDS011;60755;51.374;10.662;2022-08-01T03:17:29;6.13;;;5.63;;
72676;SDS011;60755;51.374;10.662;2022-08-01T03:19:58;6.90;;;5.93;;
72676;SDS011;60755;51.374;10.662;2022-08-01T03:22:28;9.30;;;6.28;;
72676;SDS011;60755;51.374;10.662;2022-08-01T03:24:56;6.50;;;5.75;;
72676;SDS011;60755;51.374;10.662;2022-08-01T03:27:24;6.10;;;5.50;;
72676;SDS011;60755;51.374;10.662;2022-08-01T03:29:54;6.90;;;6.20;;
72676;SDS011;60755;51.374;10.662;2022-08-01T03:32:22;6.90;;;6.13;;
72676;SDS011;60755;51.374;10.662;2022-08-01T03:34:49;11.13;;;6.93;;
72676;SDS011;60755;51.374;10.662;2022-08-01T03:37:24;7.28;;;6.68;;
72676;SDS011;60755;51.374;10.662;2022-08-01T03:39:54;7.80;;;6.93;;
72676;SDS011;60755;51.374;10.662;2022-08-01T03:42:24;7.55;;;6.75;;
72676;SDS011;60755;51.374;10.662;2022-08-01T03:44:57;9.27;;;6.78;;
72676;SDS011;60755;51.374;10.662;2022-08-01T03:47:29;6.68;;;6.07;;
72676;SDS011;60755;51.374;10.662;2022-08-01T03:49:58;8.60;;;6.75;;
72676;SDS011;60755;51.374;10.662;2022-08-01T03:52:27;7.95;;;6.80;;
72676;SDS011;60755;51.374;10.662;2022-08-01T03:54:56;8.65;;;6.80;;
72676;SDS011;60755;51.374;10.662;2022-08-01T03:57:25;7.00;;;6.30;;
72676;SDS011;60755;51.374;10.662;2022-08-01T03:59:56;7.55;;;6.68;;
72676;SDS011;60755;51.374;10.662;2022-08-01T04:02:24;7.60;;;6.90;;
72676;SDS011;60755;51.374;10.662;2022-08-01T04:04:52;6.78;;;5.38;;
72676;SDS011;60755;51.374;10.662;2022-08-01T04:07:22;5.72;;;4.15;;
72676;SDS011;60755;51.374;10.662;2022-08-01T04:09:49;3.55;;;3.22;;
72676;SDS011;60755;51.374;10.662;2022-08-01T04:12:16;3.95;;;3.65;;
72676;SDS011;60755;51.374;10.662;2022-08-01T04:14:43;3.28;;;3.08;;
72676;SDS011;60755;51.374;10.662;2022-08-01T04:17:10;3.28;;;3.08;;
72676;SDS011;60755;51.374;10.662;2022-08-01T04:19:37;3.40;;;3.10;;
72676;SDS011;60755;51.374;10.662;2022-08-01T04:22:03;2.65;;;2.55;;
72676;SDS011;60755;51.374;10.662;2022-08-01T04:24:30;2.65;;;2.55;;
72676;SDS011;60755;51.374;10.662;2022-08-01T04:27:00;3.22;;;3.00;;
72676;SDS011;60755;51.374;10.662;2022-08-01T04:29:27;2.63;;;2.42;;
72676;SDS011;60755;51.374;10.662;2022-08-01T04:31:56;2.38;;;2.28;;
72676;SDS011;60755;51.374;10.662;2022-08-01T04:34:26;2.17;;;2.00;;
72676;SDS011;60755;51.374;10.662;2022-08-01T04:36:56;2.38;;;2.28;;
72676;SDS011;60755;51.374;10.662;2022-08-01T04:39:25;3.08;;;2.20;;
72676;SDS011;60755;51.374;10.662;2022-08-01T04:41:55;2.65;;;1.80;;
72676;SDS011;60755;51.374;10.662;2022-08-01T04:44:22;2.25;;;2.15;;
72676;SDS011;60755;51.374;10.662;2022-08-01T04:46:49;2.08;;;1.98;;
72676;SDS011;60755;51.374;10.662;2022-08-01T04:49:19;2.13;;;2.10;;
72676;SDS011;60755;51.374;10.662;2022-08-01T04:51:50;2.38;;;2.13;;
72676;SDS011;60755;51.374;10.662;2022-08-01T04:54:22;2.42;;;2.22;;
72676;SDS011;60755;51.374;10.662;2022-08-01T04:56:48;2.35;;;2.03;;
72676;SDS011;60755;51.374;10.662;2022-08-01T04:59:15;2.25;;;1.83;;
72676;SDS011;60755;51.374;10.662;2022-08-01T05:01:59;2.47;;;2.22;;
72676;SDS011;60755;51.374;10.662;2022-08-01T05:04:25;2.60;;;2.50;;
72676;SDS011;60755;51.374;10.662;2022-08-01T05:06:53;2.70;;;2.60;;
72676;SDS011;60755;51.374;10.662;2022-08-01T05:09:20;2.38;;;2.20;;
72676;SDS011;60755;51.374;10.662;2022-08-01T05:11:47;2.10;;;2.00;;
72676;SDS011;60755;51.374;10.662;2022-08-01T05:14:13;2.03;;;1.92;;
72676;SDS011;60755;51.374;10.662;2022-08-01T05:16:43;2.20;;;2.08;;
72676;SDS011;60755;51.374;10.662;2022-08-01T05:19:10;2.00;;;1.90;;
72676;SDS011;60755;51.374;10.662;2022-08-01T05:21:37;1.80;;;1.80;;
72676;SDS011;60755;51.374;10.662;2022-08-01T05:24:05;2.35;;;2.20;;
72676;SDS011;60755;51.374;10.662;2022-08-01T05:26:32;2.45;;;2.30;;
72676;SDS011;60755;51.374;10.662;2022-08-01T05:28:58;2.08;;;1.98;;
72676;SDS011;60755;51.374;10.662;2022-08-01T05:31:24;2.30;;;2.20;;
72676;SDS011;60755;51.374;10.662;2022-08-01T05:33:51;2.05;;;1.98;;
72676;SDS011;60755;51.374;10.662;2022-08-01T05:36:17;2.30;;;2.03;;
72676;SDS011;60755;51.374;10.662;2022-08-01T05:38:43;2.58;;;2.38;;
72676;SDS011;60755;51.374;10.662;2022-08-01T05:41:11;2.22;;;2.20;;
72676;SDS011;60755;51.374;10.662;2022-08-01T05:43:38;2.38;;;2.28;;
72676;SDS011;60755;51.374;10.662;2022-08-01T05:46:04;3.17;;;2.40;;
72676;SDS011;60755;51.374;10.662;2022-08-01T05:48:31;2.20;;;2.15;;
72676;SDS011;60755;51.374;10.662;2022-08-01T05:50:57;2.35;;;2.25;;
72676;SDS011;60755;51.374;10.662;2022-08-01T05:53:23;1.98;;;1.90;;
72676;SDS011;60755;51.374;10.662;2022-08-01T05:55:50;2.03;;;1.92;;
72676;SDS011;60755;51.374;10.662;2022-08-01T05:58:17;1.92;;;1.92;;
72676;SDS011;60755;51.374;10.662;2022-08-01T06:00:44;1.92;;;1.83;;
72676;SDS011;60755;51.374;10.662;2022-08-01T06:03:10;1.90;;;1.80;;
72676;SDS011;60755;51.374;10.662;2022-08-01T06:05:37;1.63;;;1.50;;
72676;SDS011;60755;51.374;10.662;2022-08-01T06:08:03;2.20;;;2.10;;
72676;SDS011;60755;51.374;10.662;2022-08-01T06:10:30;1.90;;;1.77;;
72676;SDS011;60755;51.374;10.662;2022-08-01T06:12:56;1.88;;;1.80;;
72676;SDS011;60755;51.374;10.662;2022-08-01T06:15:24;3.15;;;2.40;;
72676;SDS011;60755;51.374;10.662;2022-08-01T06:17:50;2.10;;;2.00;;
72676;SDS011;60755;51.374;10.662;2022-08-01T06:20:17;3.17;;;2.28;;
72676;SDS011;60755;51.374;10.662;2022-08-01T06:22:43;2.40;;;2.30;;
72676;SDS011;60755;51.374;10.662;2022-08-01T06:25:10;2.63;;;2.40;;
72676;SDS011;60755;51.374;10.662;2022-08-01T06:27:37;2.10;;;2.00;;
72676;SDS011;60755;51.374;10.662;2022-08-01T06:30:03;2.45;;;2.30;;
72676;SDS011;60755;51.374;10.662;2022-08-01T06:32:33;2.20;;;2.10;;
72676;SDS011;60755;51.374;10.662;2022-08-01T06:35:00;1.90;;;1.80;;
72676;SDS011;60755;51.374;10.662;2022-08-01T06:37:28;1.90;;;1.80;;
72676;SDS011;60755;51.374;10.662;2022-08-01T06:39:55;1.70;;;1.70;;
72676;SDS011;60755;51.374;10.662;2022-08-01T06:42:21;1.35;;;1.35;;
72676;SDS011;60755;51.374;10.662;2022-08-01T06:44:49;1.35;;;1.35;;
72676;SDS011;60755;51.374;10.662;2022-08-01T06:47:15;1.88;;;1.83;;
72676;SDS011;60755;51.374;10.662;2022-08-01T06:49:43;1.50;;;1.40;;
72676;SDS011;60755;51.374;10.662;2022-08-01T06:52:09;1.60;;;1.60;;
72676;SDS011;60755;51.374;10.662;2022-08-01T06:54:36;2.55;;;1.70;;
72676;SDS011;60755;51.374;10.662;2022-08-01T06:57:04;2.00;;;1.83;;
72676;SDS011;60755;51.374;10.662;2022-08-01T06:59:31;1.50;;;1.50;;
72676;SDS011;60755;51.374;10.662;2022-08-01T07:01:57;1.58;;;1.48;;
72676;SDS011;60755;51.374;10.662;2022-08-01T07:04:23;1.30;;;1.30;;
72676;SDS011;60755;51.374;10.662;2022-08-01T07:06:51;1.20;;;1.20;;
72676;SDS011;60755;51.374;10.662;2022-08-01T07:09:17;1.38;;;1.20;;
72676;SDS011;60755;51.374;10.662;2022-08-01T07:11:44;1.40;;;1.30;;
72676;SDS011;60755;51.374;10.662;2022-08-01T07:14:10;1.27;;;1.27;;
72676;SDS011;60755;51.374;10.662;2022-08-01T07:16:37;1.20;;;1.20;;
72676;SDS011;60755;51.374;10.662;2022-08-01T07:19:03;1.10;;;1.10;;
72676;SDS011;60755;51.374;10.662;2022-08-01T07:21:29;1.13;;;1.00;;
72676;SDS011;60755;51.374;10.662;2022-08-01T07:23:57;0.98;;;0.80;;
72676;SDS011;60755;51.374;10.662;2022-08-01T07:26:23;0.85;;;0.85;;
72676;SDS011;60755;51.374;10.662;2022-08-01T07:28:51;0.90;;;0.90;;
72676;SDS011;60755;51.374;10.662;2022-08-01T07:31:18;0.80;;;0.80;;
72676;SDS011;60755;51.374;10.662;2022-08-01T07:33:44;0.80;;;0.80;;
72676;SDS011;60755;51.374;10.662;2022-08-01T07:36:11;0.95;;;0.90;;
72676;SDS011;60755;51.374;10.662;2022-08-01T07:38:37;0.90;;;0.90;;
72676;SDS011;60755;51.374;10.662;2022-08-01T07:41:05;1.02;;;0.70;;
72676;SDS011;60755;51.374;10.662;2022-08-01T07:43:31;0.80;;;0.80;;
72676;SDS011;60755;51.374;10.662;2022-08-01T07:46:00;0.80;;;0.80;;
72676;SDS011;60755;51.374;10.662;2022-08-01T07:48:27;0.90;;;0.90;;
72676;SDS011;60755;51.374;10.662;2022-08-01T07:50:53;0.80;;;0.77;;
72676;SDS011;60755;51.374;10.662;2022-08-01T07:53:20;0.70;;;0.70;;
72676;SDS011;60755;51.374;10.662;2022-08-01T07:55:47;0.80;;;0.80;;
72676;SDS011;60755;51.374;10.662;2022-08-01T07:58:14;0.77;;;0.77;;
72676;SDS011;60755;51.374;10.662;2022-08-01T08:00:41;1.17;;;0.93;;
72676;SDS011;60755;51.374;10.662;2022-08-01T08:03:07;0.80;;;0.80;;
72676;SDS011;60755;51.374;10.662;2022-08-01T08:05:34;0.90;;;0.90;;
72676;SDS011;60755;51.374;10.662;2022-08-01T08:08:01;1.00;;;1.00;;
72676;SDS011;60755;51.374;10.662;2022-08-01T08:10:27;0.75;;;0.75;;
72676;SDS011;60755;51.374;10.662;2022-08-01T08:12:54;0.88;;;0.85;;
72676;SDS011;60755;51.374;10.662;2022-08-01T08:15:21;0.90;;;0.90;;
72676;SDS011;60755;51.374;10.662;2022-08-01T08:17:48;1.85;;;0.90;;
72676;SDS011;60755;51.374;10.662;2022-08-01T08:20:14;1.20;;;0.90;;
72676;SDS011;60755;51.374;10.662;2022-08-01T08:22:40;0.90;;;0.90;;
72676;SDS011;60755;51.374;10.662;2022-08-01T08:25:07;1.00;;;1.00;;
72676;SDS011;60755;51.374;10.662;2022-08-01T08:27:34;0.93;;;0.93;;
72676;SDS011;60755;51.374;10.662;2022-08-01T08:30:01;1.02;;;0.90;;
72676;SDS011;60755;51.374;10.662;2022-08-01T08:32:29;2.22;;;1.20;;
72676;SDS011;60755;51.374;10.662;2022-08-01T08:34:56;1.15;;;1.15;;
72676;SDS011;60755;51.374;10.662;2022-08-01T08:37:22;1.10;;;1.10;;
72676;SDS011;60755;51.374;10.662;2022-08-01T08:39:48;1.10;;;1.10;;
72676;SDS011;60755;51.374;10.662;2022-08-01T08:42:15;1.40;;;1.30;;
72676;SDS011;60755;51.374;10.662;2022-08-01T08:44:41;1.30;;;1.30;;
72676;SDS011;60755;51.374;10.662;2022-08-01T08:47:08;1.23;;;1.20;;
72676;SDS011;60755;51.374;10.662;2022-08-01T08:49:39;3.92;;;1.30;;
72676;SDS011;60755;51.374;10.662;2022-08-01T08:52:09;1.10;;;1.10;;
72676;SDS011;60755;51.374;10.662;2022-08-01T08:54:37;1.00;;;1.00;;
72676;SDS011;60755;51.374;10.662;2022-08-01T08:57:06;1.15;;;1.10;;
72676;SDS011;60755;51.374;10.662;2022-08-01T08:59:35;1.23;;;1.17;;
72676;SDS011;60755;51.374;10.662;2022-08-01T09:02:03;1.73;;;1.63;;
72676;SDS011;60755;51.374;10.662;2022-08-01T09:04:30;1.00;;;1.00;;
72676;SDS011;60755;51.374;10.662;2022-08-01T09:06:58;1.60;;;1.13;;
72676;SDS011;60755;51.374;10.662;2022-08-01T09:09:25;1.10;;;1.10;;
72676;SDS011;60755;51.374;10.662;2022-08-01T09:11:51;2.13;;;1.20;;
72676;SDS011;60755;51.374;10.662;2022-08-01T09:14:20;1.63;;;1.00;;
72676;SDS011;60755;51.374;10.662;2022-08-01T09:16:58;0.93;;;0.93;;
72676;SDS011;60755;51.374;10.662;2022-08-01T09:19:26;0.85;;;0.85;;
72676;SDS011;60755;51.374;10.662;2022-08-01T09:22:03;0.90;;;0.90;;
72676;SDS011;60755;51.374;10.662;2022-08-01T09:24:32;0.90;;;0.90;;
72676;SDS011;60755;51.374;10.662;2022-08-01T09:27:01;1.10;;;1.10;;
72676;SDS011;60755;51.374;10.662;2022-08-01T09:29:40;1.00;;;1.00;;
72676;SDS011;60755;51.374;10.662;2022-08-01T09:32:07;1.08;;;1.08;;
72676;SDS011;60755;51.374;10.662;2022-08-01T09:34:33;1.30;;;1.30;;
72676;SDS011;60755;51.374;10.662;2022-08-01T09:37:00;1.30;;;1.30;;
72676;SDS011;60755;51.374;10.662;2022-08-01T09:39:30;1.10;;;1.10;;
72676;SDS011;60755;51.374;10.662;2022-08-01T09:42:00;1.10;;;1.10;;
72676;SDS011;60755;51.374;10.662;2022-08-01T09:44:37;1.38;;;1.38;;
72676;SDS011;60755;51.374;10.662;2022-08-01T09:47:05;1.17;;;1.17;;
72676;SDS011;60755;51.374;10.662;2022-08-01T09:49:32;1.60;;;1.50;;
72676;SDS011;60755;51.374;10.662;2022-08-01T09:52:09;1.20;;;1.20;;
72676;SDS011;60755;51.374;10.662;2022-08-01T09:54:39;1.40;;;1.30;;
72676;SDS011;60755;51.374;10.662;2022-08-01T09:57:10;0.73;;;0.73;;
72676;SDS011;60755;51.374;10.662;2022-08-01T09:59:39;0.88;;;0.88;;
72676;SDS011;60755;51.374;10.662;2022-08-01T10:02:07;0.80;;;0.80;;
72676;SDS011;60755;51.374;10.662;2022-08-01T10:04:36;2.75;;;0.85;;
72676;SDS011;60755;51.374;10.662;2022-08-01T10:07:03;0.73;;;0.73;;
72676;SDS011;60755;51.374;10.662;2022-08-01T10:09:32;0.82;;;0.73;;
72676;SDS011;60755;51.374;10.662;2022-08-01T10:12:01;0.80;;;0.80;;
72676;SDS011;60755;51.374;10.662;2022-08-01T10:14:29;0.80;;;0.80;;
72676;SDS011;60755;51.374;10.662;2022-08-01T10:16:57;0.80;;;0.80;;
72676;SDS011;60755;51.374;10.662;2022-08-01T10:19:25;0.90;;;0.90;;
72676;SDS011;60755;51.374;10.662;2022-08-01T10:21:53;2.50;;;0.90;;
72676;SDS011;60755;51.374;10.662;2022-08-01T10:24:21;0.90;;;0.90;;
72676;SDS011;60755;51.374;10.662;2022-08-01T10:26:48;1.10;;;1.00;;
72676;SDS011;60755;51.374;10.662;2022-08-01T10:29:21;1.42;;;1.00;;
72676;SDS011;60755;51.374;10.662;2022-08-01T10:31:49;1.02;;;1.02;;
72676;SDS011;60755;51.374;10.662;2022-08-01T10:34:16;0.90;;;0.90;;
72676;SDS011;60755;51.374;10.662;2022-08-01T10:36:45;1.45;;;1.00;;
72676;SDS011;60755;51.374;10.662;2022-08-01T10:39:12;1.00;;;1.00;;
72676;SDS011;60755;51.374;10.662;2022-08-01T10:41:39;1.00;;;1.00;;
72676;SDS011;60755;51.374;10.662;2022-08-01T10:44:06;2.28;;;1.05;;
72676;SDS011;60755;51.374;10.662;2022-08-01T10:46:37;1.10;;;1.10;;
72676;SDS011;60755;51.374;10.662;2022-08-01T10:49:06;1.00;;;1.00;;
72676;SDS011;60755;51.374;10.662;2022-08-01T10:51:36;0.90;;;0.90;;
72676;SDS011;60755;51.374;10.662;2022-08-01T10:54:05;1.20;;;1.20;;
72676;SDS011;60755;51.374;10.662;2022-08-01T10:56:38;1.58;;;1.58;;
72676;SDS011;60755;51.374;10.662;2022-08-01T10:59:05;1.00;;;1.00;;
72676;SDS011;60755;51.374;10.662;2022-08-01T11:01:32;0.90;;;0.90;;
72676;SDS011;60755;51.374;10.662;2022-08-01T11:04:04;0.95;;;0.80;;
72676;SDS011;60755;51.374;10.662;2022-08-01T11:06:45;0.88;;;0.88;;
72676;SDS011;60755;51.374;10.662;2022-08-01T11:09:21;0.90;;;0.90;;
72676;SDS011;60755;51.374;10.662;2022-08-01T11:11:57;0.90;;;0.90;;
72676;SDS011;60755;51.374;10.662;2022-08-01T11:14:25;1.10;;;1.10;;
72676;SDS011;60755;51.374;10.662;2022-08-01T11:16:52;1.08;;;1.08;;
72676;SDS011;60755;51.374;10.662;2022-08-01T11:19:19;1.85;;;1.10;;
72676;SDS011;60755;51.374;10.662;2022-08-01T11:21:58;1.00;;;1.00;;
72676;SDS011;60755;51.374;10.662;2022-08-01T11:27:23;0.90;;;0.90;;
72676;SDS011;60755;51.374;10.662;2022-08-01T11:32:51;0.90;;;0.90;;
72676;SDS011;60755;51.374;10.662;2022-08-01T11:35:20;1.20;;;1.20;;
72676;SDS011;60755;51.374;10.662;2022-08-01T11:37:49;1.10;;;1.10;;
72676;SDS011;60755;51.374;10.662;2022-08-01T11:40:17;1.02;;;1.00;;
72676;SDS011;60755;51.374;10.662;2022-08-01T11:42:45;1.80;;;1.73;;
72676;SDS011;60755;51.374;10.662;2022-08-01T11:45:12;1.63;;;1.63;;
72676;SDS011;60755;51.374;10.662;2022-08-01T11:47:45;1.00;;;1.00;;
72676;SDS011;60755;51.374;10.662;2022-08-01T11:50:34;1.20;;;1.20;;
72676;SDS011;60755;51.374;10.662;2022-08-01T11:53:02;1.00;;;1.00;;
72676;SDS011;60755;51.374;10.662;2022-08-01T11:55:30;1.65;;;0.93;;
72676;SDS011;60755;51.374;10.662;2022-08-01T11:57:59;1.00;;;1.00;;
72676;SDS011;60755;51.374;10.662;2022-08-01T12:00:27;1.48;;;1.13;;
72676;SDS011;60755;51.374;10.662;2022-08-01T12:02:59;1.50;;;1.10;;
72676;SDS011;60755;51.374;10.662;2022-08-01T12:05:27;1.17;;;1.17;;
72676;SDS011;60755;51.374;10.662;2022-08-01T12:07:55;2.05;;;1.13;;
72676;SDS011;60755;51.374;10.662;2022-08-01T12:10:23;1.10;;;1.10;;
72676;SDS011;60755;51.374;10.662;2022-08-01T12:12:52;1.00;;;1.00;;
72676;SDS011;60755;51.374;10.662;2022-08-01T12:15:20;1.92;;;1.25;;
72676;SDS011;60755;51.374;10.662;2022-08-01T12:17:49;1.00;;;1.00;;
72676;SDS011;60755;51.374;10.662;2022-08-01T12:20:19;0.90;;;0.90;;
72676;SDS011;60755;51.374;10.662;2022-08-01T12:22:47;1.65;;;1.10;;
72676;SDS011;60755;51.374;10.662;2022-08-01T12:25:16;1.10;;;1.10;;
72676;SDS011;60755;51.374;10.662;2022-08-01T12:27:43;0.80;;;0.80;;
72676;SDS011;60755;51.374;10.662;2022-08-01T12:30:11;1.38;;;1.30;;
72676;SDS011;60755;51.374;10.662;2022-08-01T12:32:39;1.10;;;1.10;;
72676;SDS011;60755;51.374;10.662;2022-08-01T12:35:08;1.00;;;1.00;;
72676;SDS011;60755;51.374;10.662;2022-08-01T12:37:36;0.95;;;0.95;;
72676;SDS011;60755;51.374;10.662;2022-08-01T12:40:09;1.10;;;1.10;;
72676;SDS011;60755;51.374;10.662;2022-08-01T12:42:38;1.25;;;1.10;;
72676;SDS011;60755;51.374;10.662;2022-08-01T12:45:06;0.80;;;0.80;;
72676;SDS011;60755;51.374;10.662;2022-08-01T12:47:35;0.90;;;0.90;;
72676;SDS011;60755;51.374;10.662;2022-08-01T12:50:02;1.10;;;1.10;;
72676;SDS011;60755;51.374;10.662;2022-08-01T12:52:30;5.47;;;1.27;;
72676;SDS011;60755;51.374;10.662;2022-08-01T12:55:07;1.00;;;1.00;;
72676;SDS011;60755;51.374;10.662;2022-08-01T12:57:39;1.00;;;1.00;;
72676;SDS011;60755;51.374;10.662;2022-08-01T13:00:12;1.00;;;1.00;;
72676;SDS011;60755;51.374;10.662;2022-08-01T13:02:46;1.42;;;1.00;;
72676;SDS011;60755;51.374;10.662;2022-08-01T13:05:14;1.23;;;1.00;;
72676;SDS011;60755;51.374;10.662;2022-08-01T13:07:44;0.98;;;0.90;;
72676;SDS011;60755;51.374;10.662;2022-08-01T13:10:12;0.90;;;0.90;;
72676;SDS011;60755;51.374;10.662;2022-08-01T13:12:41;0.80;;;0.80;;
72676;SDS011;60755;51.374;10.662;2022-08-01T13:15:18;0.98;;;0.98;;
72676;SDS011;60755;51.374;10.662;2022-08-01T13:17:50;1.08;;;1.08;;
72676;SDS011;60755;51.374;10.662;2022-08-01T13:20:21;2.17;;;0.90;;
72676;SDS011;60755;51.374;10.662;2022-08-01T13:22:48;0.98;;;0.98;;
72676;SDS011;60755;51.374;10.662;2022-08-01T13:25:15;2.17;;;1.10;;
72676;SDS011;60755;51.374;10.662;2022-08-01T13:27:43;1.00;;;1.00;;
72676;SDS011;60755;51.374;10.662;2022-08-01T13:30:10;0.90;;;0.90;;
72676;SDS011;60755;51.374;10.662;2022-08-01T13:32:38;0.88;;;0.88;;
72676;SDS011;60755;51.374;10.662;2022-08-01T13:35:07;1.00;;;1.00;;
72676;SDS011;60755;51.374;10.662;2022-08-01T13:37:37;1.00;;;1.00;;
72676;SDS011;60755;51.374;10.662;2022-08-01T13:40:05;1.00;;;1.00;;
72676;SDS011;60755;51.374;10.662;2022-08-01T13:42:33;1.00;;;1.00;;
72676;SDS011;60755;51.374;10.662;2022-08-01T13:45:01;1.42;;;1.05;;
72676;SDS011;60755;51.374;10.662;2022-08-01T13:47:29;1.02;;;1.02;;
72676;SDS011;60755;51.374;10.662;2022-08-01T13:49:56;1.92;;;1.10;;
72676;SDS011;60755;51.374;10.662;2022-08-01T13:52:25;1.00;;;1.00;;
72676;SDS011;60755;51.374;10.662;2022-08-01T13:54:51;0.80;;;0.80;;
72676;SDS011;60755;51.374;10.662;2022-08-01T13:57:18;1.35;;;1.00;;
72676;SDS011;60755;51.374;10.662;2022-08-01T13:59:44;0.85;;;0.85;;
72676;SDS011;60755;51.374;10.662;2022-08-01T14:02:12;1.85;;;1.00;;
72676;SDS011;60755;51.374;10.662;2022-08-01T14:04:38;0.90;;;0.90;;
72676;SDS011;60755;51.374;10.662;2022-08-01T14:07:04;1.10;;;1.00;;
72676;SDS011;60755;51.374;10.662;2022-08-01T14:09:32;1.33;;;0.88;;
72676;SDS011;60755;51.374;10.662;2022-08-01T14:11:58;0.90;;;0.90;;
72676;SDS011;60755;51.374;10.662;2022-08-01T14:14:25;1.63;;;1.02;;
72676;SDS011;60755;51.374;10.662;2022-08-01T14:16:52;5.78;;;1.20;;
72676;SDS011;60755;51.374;10.662;2022-08-01T14:19:19;1.02;;;1.02;;
72676;SDS011;60755;51.374;10.662;2022-08-01T14:21:46;0.88;;;0.88;;
72676;SDS011;60755;51.374;10.662;2022-08-01T14:24:12;0.95;;;0.95;;
72676;SDS011;60755;51.374;10.662;2022-08-01T14:26:39;0.82;;;0.82;;
72676;SDS011;60755;51.374;10.662;2022-08-01T14:29:05;1.17;;;1.08;;
72676;SDS011;60755;51.374;10.662;2022-08-01T14:31:32;1.13;;;1.13;;
72676;SDS011;60755;51.374;10.662;2022-08-01T14:33:58;1.10;;;1.10;;
72676;SDS011;60755;51.374;10.662;2022-08-01T14:36:26;1.75;;;1.02;;
72676;SDS011;60755;51.374;10.662;2022-08-01T14:38:52;0.90;;;0.90;;
72676;SDS011;60755;51.374;10.662;2022-08-01T14:41:19;1.10;;;1.10;;
72676;SDS011;60755;51.374;10.662;2022-08-01T14:43:45;1.02;;;1.02;;
72676;SDS011;60755;51.374;10.662;2022-08-01T14:46:11;1.45;;;1.10;;